createdAt,value
2018-04-29T00:00:01.682Z,100388.00
2018-04-29T00:02:29.096Z,100391.83
2018-04-29T00:04:56.485Z,100383.84
2018-04-29T00:07:23.929Z,100382.59
2018-04-29T00:09:51.394Z,100389.80
2018-04-29T00:12:18.801Z,100390.06
2018-04-29T00:14:46.197Z,100382.73
2018-04-29T00:17:13.604Z,100377.48
2018-04-29T00:19:41.038Z,100377.62
2018-04-29T00:22:08.441Z,100380.83
2018-04-29T00:24:35.846Z,100376.09
2018-04-29T00:27:03.286Z,100367.13
2018-04-29T00:29:30.712Z,100367.13
2018-04-29T00:31:58.109Z,100362.64
2018-04-29T00:34:25.508Z,100364.59
2018-04-29T00:36:52.989Z,100369.95
2018-04-29T00:39:20.385Z,100366.15
2018-04-29T00:41:47.797Z,100370.41
2018-04-29T00:44:15.317Z,100367.09
2018-04-29T00:46:42.720Z,100368.02
2018-04-29T00:49:10.181Z,100367.34
2018-04-29T00:51:49.430Z,100362.33
2018-04-29T00:54:16.884Z,100363.98
2018-04-29T00:56:44.343Z,100363.09
2018-04-29T00:59:11.748Z,100365.06
2018-04-29T01:01:39.257Z,100365.41
2018-04-29T01:04:06.753Z,100366.30
2018-04-29T01:06:34.176Z,100365.06
2018-04-29T01:09:01.637Z,100359.11
2018-04-29T01:11:29.051Z,100363.52
2018-04-29T01:13:56.865Z,100351.27
2018-04-29T01:16:24.264Z,100353.77
2018-04-29T01:18:51.668Z,100351.38
2018-04-29T01:21:19.061Z,100354.86
2018-04-29T01:23:46.477Z,100355.81
2018-04-29T01:26:13.872Z,100365.27
2018-04-29T01:28:41.299Z,100368.55
2018-04-29T01:31:08.705Z,100368.01
2018-04-29T01:33:36.114Z,100366.37
2018-04-29T01:36:03.549Z,100366.83
2018-04-29T01:38:31.011Z,100372.86
2018-04-29T01:40:58.400Z,100378.94
2018-04-29T01:43:25.840Z,100372.42
2018-04-29T01:45:53.263Z,100368.05
2018-04-29T01:48:20.729Z,100371.73
2018-04-29T01:50:48.141Z,100366.51
2018-04-29T01:53:15.544Z,100371.19
2018-04-29T01:55:42.956Z,100365.50
2018-04-29T01:58:10.412Z,100363.88
2018-04-29T02:00:37.883Z,100357.56
2018-04-29T02:03:05.289Z,100357.98
2018-04-29T02:05:32.681Z,100359.53
2018-04-29T02:08:00.144Z,100358.92
2018-04-29T02:10:27.532Z,100348.36
2018-04-29T02:12:54.933Z,100348.28
2018-04-29T02:15:22.419Z,100346.73
2018-04-29T02:17:49.829Z,100348.94
2018-04-29T02:20:17.329Z,100350.98
2018-04-29T02:22:44.728Z,100352.27
2018-04-29T02:25:12.133Z,100349.66
2018-04-29T02:27:39.644Z,100348.38
2018-04-29T02:30:07.069Z,100348.60
2018-04-29T02:32:34.524Z,100353.66
2018-04-29T02:35:02.017Z,100349.90
2018-04-29T02:37:29.440Z,100352.63
2018-04-29T02:39:56.892Z,100347.73
2018-04-29T02:42:24.297Z,100353.95
2018-04-29T02:44:51.699Z,100357.22
2018-04-29T02:47:19.164Z,100358.84
2018-04-29T02:49:46.574Z,100364.84
2018-04-29T02:52:13.972Z,100357.33
2018-04-29T02:54:41.378Z,100355.33
2018-04-29T02:57:08.790Z,100347.73
2018-04-29T02:59:36.285Z,100345.56
2018-04-29T03:02:03.720Z,100344.08
2018-04-29T03:04:31.104Z,100346.04
2018-04-29T03:06:58.608Z,100345.09
2018-04-29T03:09:26.087Z,100350.59
2018-04-29T03:11:53.501Z,100333.20
2018-04-29T03:14:20.986Z,100325.92
2018-04-29T03:16:48.436Z,100330.45
2018-04-29T03:19:15.908Z,100334.84
2018-04-29T03:21:43.320Z,100328.21
2018-04-29T03:24:10.724Z,100325.02
2018-04-29T03:26:38.142Z,100328.59
2018-04-29T03:29:05.621Z,100329.01
2018-04-29T03:31:33.055Z,100329.73
2018-04-29T03:34:00.460Z,100333.19
2018-04-29T03:36:27.861Z,100330.41
2018-04-29T03:38:55.359Z,100324.56
2018-04-29T03:41:22.763Z,100330.58
2018-04-29T03:43:50.307Z,100329.28
2018-04-29T03:46:17.704Z,100326.58
2018-04-29T03:48:45.189Z,100317.94
2018-04-29T03:51:12.594Z,100317.79
2018-04-29T03:53:40.001Z,100312.41
2018-04-29T03:56:07.498Z,100317.65
2018-04-29T03:58:46.616Z,100326.72
2018-04-29T04:01:25.805Z,100323.55
2018-04-29T04:03:57.553Z,100328.23
2018-04-29T04:06:24.960Z,100319.95
2018-04-29T04:08:52.471Z,100315.48
2018-04-29T04:11:19.877Z,100310.94
2018-04-29T04:13:47.290Z,100308.80
2018-04-29T04:16:14.757Z,100317.70
2018-04-29T04:18:42.164Z,100320.47
2018-04-29T04:21:09.638Z,100316.50
2018-04-29T04:23:37.070Z,100320.12
2018-04-29T04:26:04.457Z,100317.64
2018-04-29T04:28:31.882Z,100323.92
2018-04-29T04:30:59.374Z,100330.23
2018-04-29T04:33:26.789Z,100338.02
2018-04-29T04:35:54.301Z,100335.95
2018-04-29T04:38:21.705Z,100338.60
2018-04-29T04:40:49.112Z,100339.66
2018-04-29T04:43:16.523Z,100337.83
2018-04-29T04:45:44.020Z,100346.84
2018-04-29T04:48:11.424Z,100355.79
2018-04-29T04:50:38.957Z,100363.89
2018-04-29T04:53:06.325Z,100364.69
2018-04-29T04:55:33.733Z,100366.86
2018-04-29T04:58:01.218Z,100357.19
2018-04-29T05:00:28.624Z,100353.93
2018-04-29T05:02:56.029Z,100348.61
2018-04-29T05:05:23.469Z,100350.07
2018-04-29T05:07:50.870Z,100354.09
2018-04-29T05:10:18.265Z,100355.27
2018-04-29T05:12:45.677Z,100353.89
2018-04-29T05:15:13.084Z,100350.38
2018-04-29T05:17:40.477Z,100350.44
2018-04-29T05:20:07.883Z,100353.23
2018-04-29T05:22:35.362Z,100351.81
2018-04-29T05:25:02.818Z,100356.31
2018-04-29T05:27:30.213Z,100356.01
2018-04-29T05:29:57.613Z,100359.36
2018-04-29T05:32:25.017Z,100347.95
2018-04-29T05:34:52.439Z,100365.59
2018-04-29T05:37:19.840Z,100363.45
2018-04-29T05:39:47.377Z,100368.86
2018-04-29T05:42:14.810Z,100368.09
2018-04-29T05:44:43.117Z,100359.30
2018-04-29T05:47:10.525Z,100370.94
2018-04-29T05:49:37.929Z,100369.41
2018-04-29T05:52:05.348Z,100366.20
2018-04-29T05:54:32.814Z,100368.12
2018-04-29T05:57:00.237Z,100365.25
2018-04-29T05:59:27.726Z,100364.92
2018-04-29T06:01:55.181Z,100363.16
2018-04-29T06:04:22.580Z,100360.20
2018-04-29T06:06:49.989Z,100360.27
2018-04-29T06:09:17.445Z,100365.48
2018-04-29T06:11:45.667Z,100356.81
2018-04-29T06:14:13.085Z,100350.59
2018-04-29T06:16:40.534Z,100355.68
2018-04-29T06:19:07.953Z,100359.78
2018-04-29T06:21:35.364Z,100361.60
2018-04-29T06:24:02.817Z,100361.54
2018-04-29T06:26:30.271Z,100362.35
2018-04-29T06:28:57.718Z,100369.30
2018-04-29T06:31:25.206Z,100358.69
2018-04-29T06:33:52.593Z,100364.66
2018-04-29T06:36:20.001Z,100363.76
2018-04-29T06:38:47.448Z,100365.63
2018-04-29T06:41:14.982Z,100362.61
2018-04-29T06:43:42.466Z,100365.63
2018-04-29T06:46:09.852Z,100373.44
2018-04-29T06:48:37.778Z,100383.45
2018-04-29T06:51:05.182Z,100383.03
2018-04-29T06:53:32.613Z,100379.23
2018-04-29T06:55:59.981Z,100376.97
2018-04-29T06:58:27.369Z,100371.58
2018-04-29T07:00:54.863Z,100372.24
2018-04-29T07:03:22.495Z,100362.92
2018-04-29T07:05:49.896Z,100364.49
2018-04-29T07:08:17.372Z,100358.91
2018-04-29T07:10:44.705Z,100358.05
2018-04-29T07:13:12.146Z,100352.16
2018-04-29T07:15:39.578Z,100352.38
2018-04-29T07:18:07.057Z,100347.77
2018-04-29T07:20:34.518Z,100346.72
2018-04-29T07:23:01.923Z,100340.17
2018-04-29T07:25:29.435Z,100338.39
2018-04-29T07:27:56.890Z,100341.27
2018-04-29T07:30:24.306Z,100343.64
2018-04-29T07:32:51.801Z,100338.84
2018-04-29T07:35:19.202Z,100328.95
2018-04-29T07:37:46.592Z,100331.83
2018-04-29T07:40:14.167Z,100326.70
2018-04-29T07:42:41.465Z,100326.31
2018-04-29T07:45:08.865Z,100325.64
2018-04-29T07:47:36.364Z,100321.59
2018-04-29T07:50:03.741Z,100317.48
2018-04-29T07:52:31.331Z,100310.86
2018-04-29T07:54:58.619Z,100310.64
2018-04-29T07:57:26.009Z,100307.84
2018-04-29T07:59:53.412Z,100307.23
2018-04-29T08:02:20.805Z,100294.50
2018-04-29T08:04:48.207Z,100291.17
2018-04-29T08:07:15.605Z,100291.59
2018-04-29T08:09:43.028Z,100292.61
2018-04-29T08:12:10.462Z,100299.20
2018-04-29T08:14:37.925Z,100298.91
2018-04-29T08:17:05.317Z,100304.55
2018-04-29T08:19:32.701Z,100313.90
2018-04-29T08:22:00.097Z,100318.05
2018-04-29T08:24:27.529Z,100311.52
2018-04-29T08:26:54.929Z,100320.41
2018-04-29T08:29:22.320Z,100327.44
2018-04-29T08:31:49.813Z,100318.20
2018-04-29T08:34:17.227Z,100318.48
2018-04-29T08:36:44.640Z,100319.34
2018-04-29T08:39:12.025Z,100310.77
2018-04-29T08:41:39.429Z,100305.50
2018-04-29T08:44:06.901Z,100297.70
2018-04-29T08:46:34.370Z,100302.64
2018-04-29T08:49:01.762Z,100314.98
2018-04-29T08:51:29.160Z,100306.25
2018-04-29T08:53:56.631Z,100304.95
2018-04-29T08:56:24.017Z,100318.67
2018-04-29T08:58:51.417Z,100313.30
2018-04-29T09:01:18.914Z,100306.74
2018-04-29T09:03:46.376Z,100307.05
2018-04-29T09:06:13.751Z,100302.81
2018-04-29T09:08:41.141Z,100294.14
2018-04-29T09:11:08.537Z,100309.61
2018-04-29T09:13:35.926Z,100301.03
2018-04-29T09:16:03.424Z,100297.63
2018-04-29T09:18:30.889Z,100288.61
2018-04-29T09:20:58.373Z,100289.70
2018-04-29T09:23:25.801Z,100293.25
2018-04-29T09:25:53.263Z,100283.58
2018-04-29T09:28:20.721Z,100269.02
2018-04-29T09:30:48.122Z,100267.58
2018-04-29T09:33:15.525Z,100263.42
2018-04-29T09:35:42.994Z,100262.39
2018-04-29T09:38:10.381Z,100270.66
2018-04-29T09:40:37.798Z,100276.14
2018-04-29T09:43:05.266Z,100262.91
2018-04-29T09:45:32.713Z,100259.44
2018-04-29T09:48:00.101Z,100261.53
2018-04-29T09:50:27.529Z,100266.73
2018-04-29T09:52:54.913Z,100260.05
2018-04-29T09:55:22.373Z,100261.20
2018-04-29T09:57:49.693Z,100268.13
2018-04-29T10:00:31.976Z,100271.64
2018-04-29T10:03:04.856Z,100270.75
2018-04-29T10:05:32.253Z,100269.48
2018-04-29T10:07:59.650Z,100260.56
2018-04-29T10:10:27.189Z,100242.77
2018-04-29T10:12:54.565Z,100239.47
2018-04-29T10:15:21.968Z,100247.55
2018-04-29T10:17:49.429Z,100245.62
2018-04-29T10:20:16.820Z,100247.35
2018-04-29T10:22:44.237Z,100257.01
2018-04-29T10:25:11.693Z,100244.28
2018-04-29T10:27:39.091Z,100230.80
2018-04-29T10:30:06.479Z,100246.05
2018-04-29T10:32:33.881Z,100240.02
2018-04-29T10:35:01.320Z,100245.03
2018-04-29T10:37:28.726Z,100244.09
2018-04-29T10:39:56.113Z,100238.34
2018-04-29T10:42:23.509Z,100245.60
2018-04-29T10:44:50.916Z,100242.98
2018-04-29T10:47:19.192Z,100229.59
2018-04-29T10:49:46.589Z,100238.64
2018-04-29T10:52:14.005Z,100239.16
2018-04-29T10:54:41.389Z,100233.16
2018-04-29T10:57:08.833Z,100240.31
2018-04-29T10:59:36.217Z,100230.89
2018-04-29T11:02:03.617Z,100225.91
2018-04-29T11:04:31.005Z,100215.16
2018-04-29T11:06:58.416Z,100210.33
2018-04-29T11:09:25.898Z,100208.53
2018-04-29T11:11:53.357Z,100201.18
2018-04-29T11:14:20.744Z,100201.08
2018-04-29T11:16:48.141Z,100193.98
2018-04-29T11:19:15.694Z,100197.07
2018-04-29T11:21:43.076Z,100182.13
2018-04-29T11:24:10.477Z,100172.61
2018-04-29T11:26:37.873Z,100172.36
2018-04-29T11:29:05.269Z,100175.05
2018-04-29T11:31:33.593Z,100173.63
2018-04-29T11:34:00.985Z,100170.80
2018-04-29T11:36:28.453Z,100175.59
2018-04-29T11:38:55.849Z,100186.53
2018-04-29T11:41:23.241Z,100181.02
2018-04-29T11:43:50.632Z,100181.30
2018-04-29T11:46:18.028Z,100166.05
2018-04-29T11:48:45.513Z,100163.59
2018-04-29T11:51:12.930Z,100164.01
2018-04-29T11:53:40.322Z,100163.67
2018-04-29T11:56:07.786Z,100158.80
2018-04-29T11:58:35.249Z,100164.61
2018-04-29T12:01:02.637Z,100159.16
2018-04-29T12:03:30.050Z,100151.38
2018-04-29T12:05:57.522Z,100143.52
2018-04-29T12:08:24.968Z,100144.24
2018-04-29T12:10:52.369Z,100134.27
2018-04-29T12:13:19.765Z,100136.30
2018-04-29T12:15:47.169Z,100126.32
2018-04-29T12:18:14.576Z,100118.48
2018-04-29T12:20:42.057Z,100118.75
2018-04-29T12:23:09.533Z,100120.80
2018-04-29T12:25:36.997Z,100111.35
2018-04-29T12:28:04.393Z,100105.56
2018-04-29T12:30:31.820Z,100090.02
2018-04-29T12:32:59.210Z,100066.75
2018-04-29T12:35:26.613Z,100075.27
2018-04-29T12:37:54.061Z,100086.18
2018-04-29T12:40:21.458Z,100076.06
2018-04-29T12:42:48.848Z,100059.62
2018-04-29T12:45:16.329Z,100053.59
2018-04-29T12:47:43.737Z,100051.55
2018-04-29T12:50:11.674Z,100050.63
2018-04-29T12:52:39.113Z,100053.62
2018-04-29T12:55:06.566Z,100057.55
2018-04-29T12:57:33.960Z,100057.02
2018-04-29T13:00:01.561Z,100056.38
2018-04-29T13:02:28.936Z,100043.40
2018-04-29T13:04:56.359Z,100040.83
2018-04-29T13:07:23.788Z,100043.39
2018-04-29T13:09:51.172Z,100037.23
2018-04-29T13:12:19.355Z,100029.45
2018-04-29T13:14:46.826Z,100036.02
2018-04-29T13:17:14.217Z,100025.52
2018-04-29T13:19:41.614Z,100017.08
2018-04-29T13:22:09.009Z,100008.05
2018-04-29T13:24:36.410Z,100003.52
2018-04-29T13:27:03.812Z,100003.55
2018-04-29T13:29:31.293Z,99996.62
2018-04-29T13:31:58.752Z,99998.66
2018-04-29T13:34:26.128Z,99995.73
2018-04-29T13:36:53.525Z,100003.11
2018-04-29T13:39:20.905Z,99996.11
2018-04-29T13:41:48.293Z,99989.48
2018-04-29T13:44:15.672Z,99978.16
2018-04-29T13:46:43.161Z,99969.80
2018-04-29T13:49:10.689Z,99964.93
2018-04-29T13:51:38.121Z,99960.89
2018-04-29T13:54:05.495Z,99948.30
2018-04-29T13:56:32.908Z,99941.88
2018-04-29T13:59:00.365Z,99943.70
2018-04-29T14:01:27.749Z,99942.28
2018-04-29T14:03:55.146Z,99954.19
2018-04-29T14:06:22.622Z,99956.58
2018-04-29T14:08:50.017Z,99951.82
2018-04-29T14:11:17.409Z,99946.23
2018-04-29T14:13:44.813Z,99938.63
2018-04-29T14:16:12.233Z,99937.91
2018-04-29T14:18:39.700Z,99931.74
2018-04-29T14:21:07.100Z,99928.30
2018-04-29T14:23:34.497Z,99921.44
2018-04-29T14:26:01.893Z,99921.56
2018-04-29T14:28:29.289Z,99921.74
2018-04-29T14:30:56.701Z,99918.59
2018-04-29T14:33:24.082Z,99914.39
2018-04-29T14:35:51.472Z,99910.55
2018-04-29T14:38:18.865Z,99904.17
2018-04-29T14:40:47.439Z,99893.83
2018-04-29T14:43:14.897Z,99894.83
2018-04-29T14:45:42.277Z,99889.87
2018-04-29T14:48:09.681Z,99893.06
2018-04-29T14:50:37.072Z,99897.13
2018-04-29T14:53:04.478Z,99887.57
2018-04-29T14:55:31.868Z,99892.86
2018-04-29T14:57:59.272Z,99886.42
2018-04-29T15:00:26.750Z,99879.12
2018-04-29T15:02:54.191Z,99876.77
2018-04-29T15:05:21.652Z,99875.72
2018-04-29T15:07:49.104Z,99879.66
2018-04-29T15:10:16.488Z,99871.55
2018-04-29T15:12:43.882Z,99862.83
2018-04-29T15:15:11.377Z,99862.09
2018-04-29T15:17:38.857Z,99860.34
2018-04-29T15:20:06.242Z,99864.74
2018-04-29T15:22:33.650Z,99870.03
2018-04-29T15:25:01.053Z,99877.31
2018-04-29T15:27:28.747Z,99893.34
2018-04-29T15:29:56.133Z,99899.81
2018-04-29T15:32:23.593Z,99909.98
2018-04-29T15:34:50.999Z,99914.78
2018-04-29T15:37:18.517Z,99910.72
2018-04-29T15:39:45.905Z,99907.95
2018-04-29T15:42:13.304Z,99902.75
2018-04-29T15:44:40.783Z,99906.61
2018-04-29T15:47:08.167Z,99906.38
2018-04-29T15:49:35.583Z,99896.31
2018-04-29T15:52:03.038Z,99893.58
2018-04-29T15:54:30.588Z,99894.45
2018-04-29T15:56:57.884Z,99889.30
2018-04-29T15:59:25.360Z,99894.12
2018-04-29T16:01:52.813Z,99903.73
2018-04-29T16:04:20.266Z,99900.86
2018-04-29T16:06:47.737Z,99897.88
2018-04-29T16:09:15.186Z,99888.59
2018-04-29T16:11:42.657Z,99887.66
2018-04-29T16:14:10.010Z,99888.23
2018-04-29T16:16:37.383Z,99890.77
2018-04-29T16:19:04.818Z,99877.19
2018-04-29T16:21:32.218Z,99866.41
2018-04-29T16:23:59.726Z,99854.88
2018-04-29T16:26:27.076Z,99851.89
2018-04-29T16:28:54.475Z,99845.70
2018-04-29T16:31:21.848Z,99839.23
2018-04-29T16:33:49.249Z,99833.25
2018-04-29T16:36:16.633Z,99828.52
2018-04-29T16:38:44.945Z,99814.70
2018-04-29T16:41:12.421Z,99804.64
2018-04-29T16:43:39.855Z,99791.83
2018-04-29T16:46:07.318Z,99792.19
2018-04-29T16:48:34.709Z,99776.91
2018-04-29T16:51:02.143Z,99763.71
2018-04-29T16:53:29.543Z,99762.06
2018-04-29T16:55:56.937Z,99754.66
2018-04-29T16:58:24.401Z,99758.69
2018-04-29T17:00:51.799Z,99761.53
2018-04-29T17:03:19.218Z,99764.92
2018-04-29T17:05:46.613Z,99756.91
2018-04-29T17:08:14.025Z,99756.55
2018-04-29T17:10:41.510Z,99752.80
2018-04-29T17:13:08.905Z,99758.62
2018-04-29T17:15:36.309Z,99751.92
2018-04-29T17:18:03.701Z,99758.74
2018-04-29T17:20:31.109Z,99754.04
2018-04-29T17:22:58.580Z,99753.29
2018-04-29T17:25:25.977Z,99752.17
2018-04-29T17:27:53.454Z,99757.59
2018-04-29T17:30:20.840Z,99752.26
2018-04-29T17:32:48.276Z,99751.91
2018-04-29T17:35:15.729Z,99761.77
2018-04-29T17:37:43.157Z,99754.65
2018-04-29T17:40:10.558Z,99752.39
2018-04-29T17:42:37.934Z,99745.08
2018-04-29T17:45:05.357Z,99744.66
2018-04-29T17:47:32.827Z,99742.26
2018-04-29T17:50:00.228Z,99742.01
2018-04-29T17:52:27.717Z,99739.44
2018-04-29T17:54:55.112Z,99742.70
2018-04-29T17:57:22.518Z,99741.61
2018-04-29T17:59:49.908Z,99743.89
2018-04-29T18:02:17.311Z,99735.42
2018-04-29T18:04:44.700Z,99735.36
2018-04-29T18:07:12.113Z,99732.63
2018-04-29T18:09:39.492Z,99727.56
2018-04-29T18:12:06.881Z,99727.84
2018-04-29T18:14:34.273Z,99732.73
2018-04-29T18:17:01.656Z,99732.88
2018-04-29T18:19:29.047Z,99730.19
2018-04-29T18:21:56.512Z,99727.20
2018-04-29T18:24:23.937Z,99733.69
2018-04-29T18:26:51.321Z,99732.16
2018-04-29T18:29:18.714Z,99733.45
2018-04-29T18:31:46.157Z,99734.95
2018-04-29T18:34:13.573Z,99725.50
2018-04-29T18:36:41.037Z,99733.06
2018-04-29T18:39:08.441Z,99728.42
2018-04-29T18:41:35.845Z,99730.88
2018-04-29T18:44:03.296Z,99732.29
2018-04-29T18:46:30.702Z,99723.62
2018-04-29T18:48:58.093Z,99726.28
2018-04-29T18:51:25.561Z,99729.84
2018-04-29T18:53:52.873Z,99725.61
2018-04-29T18:56:20.318Z,99721.27
2018-04-29T18:58:47.745Z,99723.01
2018-04-29T19:01:15.179Z,99715.11
2018-04-29T19:03:42.549Z,99713.31
2018-04-29T19:06:09.936Z,99712.73
2018-04-29T19:08:37.336Z,99707.05
2018-04-29T19:11:04.835Z,99707.18
2018-04-29T19:13:32.229Z,99711.10
2018-04-29T19:15:59.720Z,99711.66
2018-04-29T19:18:27.165Z,99713.98
2018-04-29T19:20:54.565Z,99716.28
2018-04-29T19:23:21.977Z,99721.06
2018-04-29T19:25:49.381Z,99717.01
2018-04-29T19:28:16.827Z,99709.69
2018-04-29T19:30:44.240Z,99700.09
2018-04-29T19:33:11.703Z,99700.81
2018-04-29T19:35:39.093Z,99706.27
2018-04-29T19:38:06.506Z,99698.30
2018-04-29T19:40:33.982Z,99701.95
2018-04-29T19:43:01.422Z,99694.17
2018-04-29T19:45:28.852Z,99683.94
2018-04-29T19:47:56.240Z,99685.47
2018-04-29T19:50:23.704Z,99682.28
2018-04-29T19:52:51.109Z,99680.68
2018-04-29T19:55:18.520Z,99674.51
2018-04-29T19:57:45.976Z,99679.81
2018-04-29T20:00:13.373Z,99673.89
2018-04-29T20:02:40.756Z,99666.73
2018-04-29T20:05:08.150Z,99665.59
2018-04-29T20:07:35.538Z,99676.94
2018-04-29T20:10:02.964Z,99668.99
2018-04-29T20:12:30.421Z,99662.39
2018-04-29T20:14:57.901Z,99654.78
2018-04-29T20:17:25.309Z,99647.12
2018-04-29T20:19:52.797Z,99650.87
2018-04-29T20:22:20.237Z,99645.27
2018-04-29T20:24:47.711Z,99646.81
2018-04-29T20:27:15.097Z,99636.50
2018-04-29T20:29:42.503Z,99645.52
2018-04-29T20:32:09.893Z,99645.06
2018-04-29T20:34:37.294Z,99645.77
2018-04-29T20:37:04.769Z,99638.67
2018-04-29T20:39:32.172Z,99630.33
2018-04-29T20:41:59.589Z,99623.80
2018-04-29T20:44:26.995Z,99614.69
2018-04-29T20:46:54.390Z,99616.84
2018-04-29T20:49:21.789Z,99615.93
2018-04-29T20:51:49.208Z,99615.61
2018-04-29T20:54:16.613Z,99605.69
2018-04-29T20:56:44.010Z,99605.08
2018-04-29T20:59:11.421Z,99592.57
2018-04-29T21:01:38.818Z,99590.16
2018-04-29T21:04:06.195Z,99580.78
2018-04-29T21:06:33.641Z,99580.83
2018-04-29T21:09:01.040Z,99579.98
2018-04-29T21:11:28.437Z,99580.26
2018-04-29T21:13:55.838Z,99568.44
2018-04-29T21:16:23.269Z,99566.83
2018-04-29T21:18:50.657Z,99564.36
2018-04-29T21:21:18.049Z,99546.63
2018-04-29T21:23:45.466Z,99549.06
2018-04-29T21:26:12.895Z,99543.56
2018-04-29T21:28:40.582Z,99534.53
2018-04-29T21:31:07.973Z,99535.55
2018-04-29T21:33:35.429Z,99528.20
2018-04-29T21:36:02.820Z,99526.95
2018-04-29T21:38:30.291Z,99529.11
2018-04-29T21:40:57.693Z,99525.38
2018-04-29T21:43:25.080Z,99518.44
2018-04-29T21:45:52.546Z,99509.17
2018-04-29T21:48:19.929Z,99502.00
2018-04-29T21:50:47.357Z,99494.05
2018-04-29T21:53:14.831Z,99497.02
2018-04-29T21:55:42.217Z,99489.14
2018-04-29T21:58:09.640Z,99481.83
2018-04-29T22:00:37.044Z,99475.07
2018-04-29T22:03:04.533Z,99476.98
2018-04-29T22:05:32.019Z,99469.99
2018-04-29T22:07:59.465Z,99457.40
2018-04-29T22:10:26.915Z,99447.62
2018-04-29T22:12:54.293Z,99454.73
2018-04-29T22:15:21.689Z,99459.15
2018-04-29T22:17:49.090Z,99448.70
2018-04-29T22:20:16.550Z,99448.12
2018-04-29T22:22:43.929Z,99447.81
2018-04-29T22:25:11.317Z,99445.14
2018-04-29T22:27:38.793Z,99447.62
2018-04-29T22:30:06.189Z,99439.54
2018-04-29T22:32:33.609Z,99436.87
2018-04-29T22:35:01.000Z,99431.11
2018-04-29T22:37:28.412Z,99438.80
2018-04-29T22:39:55.897Z,99434.96
2018-04-29T22:42:23.317Z,99433.70
2018-04-29T22:44:50.797Z,99431.86
2018-04-29T22:47:18.211Z,99433.55
2018-04-29T22:49:45.609Z,99435.78
2018-04-29T22:52:13.029Z,99435.21
2018-04-29T22:54:40.413Z,99423.34
2018-04-29T22:57:07.825Z,99416.42
2018-04-29T22:59:35.284Z,99410.50
2018-04-29T23:02:02.678Z,99418.02
2018-04-29T23:04:30.097Z,99415.04
2018-04-29T23:06:57.485Z,99410.92
2018-04-29T23:09:24.882Z,99407.68
2018-04-29T23:11:52.293Z,99401.93
2018-04-29T23:14:19.681Z,99398.06
2018-04-29T23:16:47.101Z,99396.83
2018-04-29T23:19:14.513Z,99399.58
2018-04-29T23:21:41.940Z,99390.24
2018-04-29T23:24:09.422Z,99390.92
2018-04-29T23:26:36.811Z,99381.50
2018-04-29T23:29:04.213Z,99369.50
2018-04-29T23:31:31.624Z,99362.90
2018-04-29T23:33:59.015Z,99363.64
2018-04-29T23:36:26.477Z,99361.34
2018-04-29T23:38:53.941Z,99351.80
2018-04-29T23:41:21.397Z,99345.90
2018-04-29T23:43:48.853Z,99336.39
2018-04-29T23:46:16.305Z,99329.79
2018-04-29T23:48:43.702Z,99320.88
2018-04-29T23:51:11.094Z,99322.81
2018-04-29T23:53:38.474Z,99315.06
2018-04-29T23:56:05.884Z,99300.72
2018-04-29T23:58:33.269Z,99305.23
